createdAt,value
2022-12-16T00:02:01.508Z,69.22
2022-12-16T00:04:28.180Z,69.13
2022-12-16T00:06:54.861Z,69.32
2022-12-16T00:09:21.524Z,69.37
2022-12-16T00:11:48.125Z,69.37
2022-12-16T00:14:14.783Z,69.27
2022-12-16T00:16:41.396Z,69.14
2022-12-16T00:19:07.975Z,69.28
2022-12-16T00:21:35.922Z,69.12
2022-12-16T00:24:02.601Z,69.19
2022-12-16T00:26:30.554Z,69.36
2022-12-16T00:28:57.702Z,69.16
2022-12-16T00:31:24.299Z,69.24
2022-12-16T00:33:52.277Z,69.27
2022-12-16T00:36:18.833Z,69.23
2022-12-16T00:38:45.373Z,69.43
2022-12-16T00:41:12.004Z,69.40
2022-12-16T00:43:39.445Z,69.56
2022-12-16T00:46:06.022Z,69.70
2022-12-16T00:48:32.790Z,69.77
2022-12-16T00:50:59.699Z,69.79
2022-12-16T00:53:26.302Z,69.60
2022-12-16T00:56:02.029Z,69.68
2022-12-16T00:58:28.584Z,69.64
2022-12-16T01:00:55.246Z,69.78
2022-12-16T01:03:22.375Z,69.69
2022-12-16T01:05:49.560Z,69.67
2022-12-16T01:08:16.299Z,69.79
2022-12-16T01:10:48.940Z,69.87
2022-12-16T01:13:15.730Z,69.86
2022-12-16T01:15:42.374Z,69.95
2022-12-16T01:18:08.938Z,70.03
2022-12-16T01:20:35.440Z,70.19
2022-12-16T01:23:02.019Z,70.31
2022-12-16T01:25:28.612Z,70.14
2022-12-16T01:27:55.313Z,70.21
2022-12-16T01:30:22.017Z,70.33
2022-12-16T01:32:49.011Z,70.31
2022-12-16T01:35:50.914Z,70.27
2022-12-16T01:38:03.253Z,70.32
2022-12-16T01:40:30.047Z,70.48
2022-12-16T01:42:56.624Z,70.54
2022-12-16T01:45:29.319Z,70.43
2022-12-16T01:48:00.730Z,70.21
2022-12-16T01:50:29.419Z,70.39
2022-12-16T01:52:59.326Z,70.48
2022-12-16T01:55:38.070Z,70.56
2022-12-16T01:58:20.858Z,70.66
2022-12-16T02:00:48.159Z,70.56
2022-12-16T02:03:15.612Z,70.67
2022-12-16T02:05:44.079Z,70.47
2022-12-16T02:08:18.711Z,70.56
2022-12-16T02:11:27.115Z,70.82
2022-12-16T02:14:18.317Z,70.87
2022-12-16T02:17:17.223Z,70.87
2022-12-16T02:19:56.607Z,70.86
2022-12-16T02:23:00.805Z,70.90
2022-12-16T02:26:04.797Z,70.93
2022-12-16T02:28:49.526Z,71.03
2022-12-16T02:31:27.117Z,71.02
2022-12-16T02:34:07.546Z,71.23
2022-12-16T02:36:53.132Z,71.14
2022-12-16T02:39:24.874Z,71.17
2022-12-16T02:42:09.122Z,71.21
2022-12-16T02:44:57.656Z,71.27
2022-12-16T02:47:24.511Z,71.17
2022-12-16T02:49:53.591Z,71.09
2022-12-16T02:52:38.441Z,71.10
2022-12-16T02:55:08.422Z,71.37
2022-12-16T02:57:48.957Z,71.23
2022-12-16T03:00:21.260Z,71.05
2022-12-16T03:03:01.362Z,71.21
2022-12-16T03:05:35.713Z,71.26
2022-12-16T03:08:07.101Z,71.33
2022-12-16T03:10:44.720Z,71.31
2022-12-16T03:13:13.654Z,71.29
2022-12-16T03:15:42.655Z,71.25
2022-12-16T03:18:13.179Z,71.19
2022-12-16T03:20:56.570Z,71.24
2022-12-16T03:23:40.339Z,71.39
2022-12-16T03:26:09.767Z,71.47
2022-12-16T03:29:02.274Z,71.64
2022-12-16T03:31:50.763Z,71.83
2022-12-16T03:34:38.559Z,71.75
2022-12-16T03:37:08.837Z,71.83
2022-12-16T03:39:41.768Z,72.00
2022-12-16T03:42:09.667Z,72.08
2022-12-16T03:44:36.598Z,72.06
2022-12-16T03:47:03.258Z,72.07
2022-12-16T03:49:29.789Z,72.01
2022-12-16T03:51:56.350Z,72.08
2022-12-16T03:54:23.756Z,72.04
2022-12-16T03:56:50.715Z,72.27
2022-12-16T03:59:17.528Z,72.21
2022-12-16T04:01:44.345Z,72.04
2022-12-16T04:04:11.457Z,72.11
2022-12-16T04:06:38.164Z,72.21
2022-12-16T04:09:04.865Z,72.22
2022-12-16T04:11:50.007Z,72.15
2022-12-16T04:14:35.434Z,71.99
2022-12-16T04:17:20.848Z,72.15
2022-12-16T04:20:06.402Z,72.46
2022-12-16T04:22:55.337Z,72.51
2022-12-16T04:25:29.335Z,72.65
2022-12-16T04:27:57.942Z,72.26
2022-12-16T04:30:27.022Z,72.21
2022-12-16T04:33:17.157Z,72.30
2022-12-16T04:36:02.653Z,72.56
2022-12-16T04:38:48.064Z,72.62
2022-12-16T04:41:33.670Z,72.48
2022-12-16T04:44:19.133Z,72.42
2022-12-16T04:47:04.663Z,72.61
2022-12-16T04:49:50.332Z,72.48
2022-12-16T04:52:36.761Z,72.47
2022-12-16T04:55:23.178Z,72.35
2022-12-16T04:58:13.374Z,72.39
2022-12-16T05:00:59.252Z,72.38
2022-12-16T05:03:45.291Z,72.66
2022-12-16T05:06:31.445Z,72.55
2022-12-16T05:09:16.898Z,72.61
2022-12-16T05:12:02.813Z,72.57
2022-12-16T05:14:48.230Z,72.63
2022-12-16T05:17:34.187Z,72.66
2022-12-16T05:20:19.675Z,72.52
2022-12-16T05:23:05.097Z,72.42
2022-12-16T05:25:50.352Z,72.67
2022-12-16T05:28:36.991Z,72.80
2022-12-16T05:31:22.413Z,72.80
2022-12-16T05:34:08.005Z,72.49
2022-12-16T05:36:53.475Z,72.72
2022-12-16T05:39:38.495Z,72.76
2022-12-16T05:42:24.068Z,72.54
2022-12-16T05:45:09.166Z,72.29
2022-12-16T05:47:54.868Z,72.34
2022-12-16T05:50:39.777Z,72.56
2022-12-16T05:53:27.853Z,72.70
2022-12-16T05:56:13.435Z,72.80
2022-12-16T05:58:58.306Z,72.85
2022-12-16T06:01:43.512Z,73.05
2022-12-16T06:04:28.704Z,73.09
2022-12-16T06:07:13.694Z,73.09
2022-12-16T06:09:58.796Z,73.22
2022-12-16T06:12:43.778Z,73.31
2022-12-16T06:15:29.084Z,73.30
2022-12-16T06:18:14.053Z,74.29
2022-12-16T06:20:59.559Z,73.76
2022-12-16T06:23:44.383Z,74.33
2022-12-16T06:26:29.972Z,74.83
2022-12-16T06:29:15.582Z,74.71
2022-12-16T06:32:00.628Z,74.51
2022-12-16T06:34:45.723Z,73.45
2022-12-16T06:37:30.713Z,73.32
2022-12-16T06:40:15.844Z,73.22
2022-12-16T06:43:00.885Z,73.51
2022-12-16T06:45:46.588Z,73.62
2022-12-16T06:48:32.261Z,73.79
2022-12-16T06:51:17.296Z,73.90
2022-12-16T06:54:02.432Z,73.87
2022-12-16T06:56:47.433Z,74.17
2022-12-16T06:59:32.522Z,74.16
2022-12-16T07:02:17.368Z,74.33
2022-12-16T07:05:02.692Z,74.37
2022-12-16T07:07:47.783Z,74.36
2022-12-16T07:10:33.091Z,74.33
2022-12-16T07:13:18.651Z,74.61
2022-12-16T07:16:04.684Z,74.78
2022-12-16T07:19:00.599Z,74.71
2022-12-16T07:21:45.677Z,74.89
2022-12-16T07:24:30.636Z,74.76
2022-12-16T07:27:15.578Z,74.83
2022-12-16T07:30:00.708Z,74.97
2022-12-16T07:32:45.770Z,75.09
2022-12-16T07:35:30.926Z,75.15
2022-12-16T07:38:15.799Z,75.12
2022-12-16T07:41:00.736Z,75.14
2022-12-16T07:43:46.324Z,75.16
2022-12-16T07:46:31.881Z,75.33
2022-12-16T07:49:17.344Z,75.35
2022-12-16T07:52:06.666Z,75.34
2022-12-16T07:54:51.786Z,75.38
2022-12-16T07:57:38.154Z,75.34
2022-12-16T08:00:24.136Z,75.31
2022-12-16T08:03:12.838Z,75.38
2022-12-16T08:05:58.456Z,75.38
2022-12-16T08:08:43.989Z,75.34
2022-12-16T08:11:28.852Z,75.38
2022-12-16T08:14:14.389Z,75.57
2022-12-16T08:16:59.787Z,75.42
2022-12-16T08:19:45.135Z,75.23
2022-12-16T08:22:43.843Z,75.18
2022-12-16T08:25:28.825Z,75.37
2022-12-16T08:28:14.603Z,75.49
2022-12-16T08:31:00.488Z,75.50
2022-12-16T08:33:45.545Z,75.61
2022-12-16T08:36:30.374Z,75.55
2022-12-16T08:39:15.542Z,75.31
2022-12-16T08:42:00.810Z,75.39
2022-12-16T08:44:45.942Z,75.42
2022-12-16T08:47:31.054Z,75.15
2022-12-16T08:50:16.160Z,75.21
2022-12-16T08:53:01.284Z,75.11
2022-12-16T08:55:46.252Z,75.40
2022-12-16T08:58:31.709Z,75.54
2022-12-16T09:01:17.261Z,75.30
2022-12-16T09:04:02.764Z,75.18
2022-12-16T09:06:48.412Z,75.31
2022-12-16T09:09:33.789Z,75.50
2022-12-16T09:12:18.842Z,75.45
2022-12-16T09:15:11.297Z,75.31
2022-12-16T09:17:56.753Z,75.19
2022-12-16T09:20:42.280Z,75.30
2022-12-16T09:23:28.016Z,75.43
2022-12-16T09:26:13.087Z,75.49
2022-12-16T09:28:58.519Z,75.69
2022-12-16T09:31:44.026Z,75.73
2022-12-16T09:34:29.088Z,75.80
2022-12-16T09:37:14.546Z,75.58
2022-12-16T09:39:59.685Z,75.78
2022-12-16T09:43:00.245Z,75.73
2022-12-16T09:45:51.525Z,75.44
2022-12-16T09:49:06.865Z,75.37
2022-12-16T09:51:55.275Z,75.49
2022-12-16T09:54:45.028Z,75.77
2022-12-16T09:57:32.444Z,75.86
2022-12-16T10:00:22.339Z,75.94
2022-12-16T10:03:09.172Z,75.83
2022-12-16T10:06:10.674Z,75.62
2022-12-16T10:09:23.393Z,75.84
2022-12-16T10:13:08.189Z,75.85
2022-12-16T10:16:05.388Z,76.10
2022-12-16T10:19:13.627Z,75.89
2022-12-16T10:22:13.772Z,75.97
2022-12-16T10:25:23.240Z,76.05
2022-12-16T10:28:15.845Z,75.76
2022-12-16T10:31:01.500Z,75.72
2022-12-16T10:33:47.987Z,75.76
2022-12-16T10:36:39.853Z,75.82
2022-12-16T10:39:47.197Z,75.42
2022-12-16T10:42:54.972Z,75.28
2022-12-16T10:45:48.654Z,75.58
2022-12-16T10:48:45.686Z,75.35
2022-12-16T10:51:39.449Z,75.45
2022-12-16T10:54:39.800Z,75.38
2022-12-16T10:57:53.068Z,75.40
2022-12-16T11:00:56.111Z,75.46
2022-12-16T11:03:59.771Z,75.51
2022-12-16T11:06:54.337Z,75.37
2022-12-16T11:09:47.568Z,75.40
2022-12-16T11:12:32.606Z,75.47
2022-12-16T11:15:29.007Z,75.81
2022-12-16T11:18:24.821Z,75.82
2022-12-16T11:21:31.173Z,75.81
2022-12-16T11:24:25.686Z,75.49
2022-12-16T11:27:15.669Z,75.41
2022-12-16T11:30:15.240Z,75.40
2022-12-16T11:33:06.148Z,75.71
2022-12-16T11:35:55.004Z,75.35
2022-12-16T11:38:41.484Z,75.41
2022-12-16T11:41:37.608Z,75.47
2022-12-16T11:44:23.790Z,75.58
2022-12-16T11:47:09.185Z,75.65
2022-12-16T11:49:54.293Z,75.44
2022-12-16T11:52:41.270Z,75.49
2022-12-16T11:56:04.954Z,75.72
2022-12-16T11:58:55.424Z,75.60
2022-12-16T12:01:50.911Z,75.64
2022-12-16T12:04:36.771Z,75.66
2022-12-16T12:07:27.704Z,75.50
2022-12-16T12:10:24.975Z,75.67
2022-12-16T12:13:23.473Z,75.76
2022-12-16T12:16:25.642Z,75.91
2022-12-16T12:19:43.884Z,75.96
2022-12-16T12:22:55.848Z,75.99
2022-12-16T12:26:02.550Z,76.13
2022-12-16T12:29:08.279Z,76.15
2022-12-16T12:32:00.754Z,76.02
2022-12-16T12:34:51.756Z,76.14
2022-12-16T12:37:40.941Z,76.37
2022-12-16T12:40:44.078Z,76.20
2022-12-16T12:43:44.974Z,76.33
2022-12-16T12:46:39.301Z,76.22
2022-12-16T12:49:27.251Z,76.20
2022-12-16T12:52:39.096Z,76.19
2022-12-16T12:55:43.729Z,76.45
2022-12-16T12:58:32.696Z,76.46
2022-12-16T13:01:20.210Z,76.63
2022-12-16T13:04:24.754Z,76.66
2022-12-16T13:07:10.307Z,76.76
2022-12-16T13:09:57.316Z,76.84
2022-12-16T13:12:48.920Z,76.77
2022-12-16T13:15:58.794Z,76.82
2022-12-16T13:18:48.397Z,76.83
2022-12-16T13:23:47.003Z,76.75
2022-12-16T13:26:36.406Z,76.79
2022-12-16T13:29:48.940Z,76.80
2022-12-16T13:32:40.527Z,76.83
2022-12-16T13:35:26.976Z,76.96
2022-12-16T13:38:19.566Z,77.02
2022-12-16T13:41:14.624Z,77.05
2022-12-16T13:44:11.335Z,77.12
2022-12-16T13:47:06.899Z,77.18
2022-12-16T13:50:03.147Z,77.16
2022-12-16T13:52:58.885Z,77.36
2022-12-16T13:56:04.804Z,77.45
2022-12-16T13:59:10.365Z,77.53
2022-12-16T14:02:10.699Z,77.48
2022-12-16T14:05:06.803Z,77.57
2022-12-16T14:08:13.775Z,77.67
2022-12-16T14:11:01.664Z,77.69
2022-12-16T14:14:05.001Z,77.70
2022-12-16T14:16:57.721Z,77.74
2022-12-16T14:19:58.260Z,77.81
2022-12-16T14:23:17.971Z,78.04
2022-12-16T14:26:17.511Z,78.12
2022-12-16T14:29:06.663Z,78.13
2022-12-16T14:31:58.554Z,78.29
2022-12-16T14:34:51.249Z,78.38
2022-12-16T14:37:56.410Z,78.17
2022-12-16T14:40:51.083Z,78.18
2022-12-16T14:43:43.732Z,78.32
2022-12-16T14:46:50.890Z,78.24
2022-12-16T14:49:43.762Z,78.39
2022-12-16T14:52:42.746Z,78.23
2022-12-16T14:55:45.417Z,78.24
2022-12-16T14:58:33.757Z,78.44
2022-12-16T15:01:39.595Z,78.39
2022-12-16T15:04:36.998Z,78.40
2022-12-16T15:07:31.690Z,78.30
2022-12-16T15:10:19.426Z,78.35
2022-12-16T15:13:08.206Z,78.49
2022-12-16T15:16:07.363Z,78.56
2022-12-16T15:19:05.193Z,78.58
2022-12-16T15:21:53.483Z,78.59
2022-12-16T15:24:43.585Z,78.74
2022-12-16T15:27:42.346Z,78.67
2022-12-16T15:30:51.240Z,78.75
2022-12-16T15:33:40.950Z,78.72
2022-12-16T15:36:46.763Z,78.80
2022-12-16T15:39:48.465Z,78.81
2022-12-16T15:42:51.644Z,78.78
2022-12-16T15:45:49.893Z,78.81
2022-12-16T15:48:38.353Z,78.82
2022-12-16T15:51:45.423Z,78.80
2022-12-16T15:54:37.632Z,78.94
2022-12-16T15:57:46.761Z,78.98
2022-12-16T16:00:40.356Z,78.86
2022-12-16T16:03:42.113Z,78.69
2022-12-16T16:06:47.306Z,78.94
2022-12-16T16:09:46.565Z,79.01
2022-12-16T16:12:35.650Z,79.20
2022-12-16T16:15:24.099Z,79.20
2022-12-16T16:18:19.978Z,79.23
2022-12-16T16:21:07.180Z,79.19
2022-12-16T16:23:54.062Z,79.38
2022-12-16T16:26:45.628Z,79.57
2022-12-16T16:29:32.593Z,79.52
2022-12-16T16:32:20.511Z,79.50
2022-12-16T16:35:07.142Z,79.71
2022-12-16T16:37:53.359Z,79.72
2022-12-16T16:40:54.182Z,79.75
2022-12-16T16:43:41.863Z,79.77
2022-12-16T16:46:50.810Z,79.68
2022-12-16T16:49:41.712Z,79.68
2022-12-16T16:52:34.568Z,79.59
2022-12-16T16:55:22.130Z,79.66
2022-12-16T16:58:09.286Z,79.89
2022-12-16T17:00:55.773Z,79.95
2022-12-16T17:03:42.882Z,80.08
2022-12-16T17:06:30.014Z,79.95
2022-12-16T17:09:16.855Z,79.90
2022-12-16T17:12:03.303Z,79.96
2022-12-16T17:14:49.784Z,80.18
2022-12-16T17:17:36.449Z,80.15
2022-12-16T17:20:23.693Z,80.31
2022-12-16T17:23:10.160Z,80.40
2022-12-16T17:25:56.525Z,80.18
2022-12-16T17:28:43.213Z,80.03
2022-12-16T17:31:30.110Z,79.86
2022-12-16T17:34:17.378Z,80.01
2022-12-16T17:37:04.053Z,80.05
2022-12-16T17:39:51.017Z,80.10
2022-12-16T17:42:39.503Z,80.17
2022-12-16T17:45:29.682Z,80.31
2022-12-16T17:48:16.304Z,80.13
2022-12-16T17:51:02.746Z,80.43
2022-12-16T17:53:52.512Z,80.45
2022-12-16T17:56:42.105Z,80.20
2022-12-16T17:59:29.214Z,80.44
2022-12-16T18:02:16.025Z,80.00
2022-12-16T18:05:02.934Z,79.97
2022-12-16T18:07:52.301Z,79.86
2022-12-16T18:10:39.025Z,79.93
2022-12-16T18:13:25.756Z,79.97
2022-12-16T18:16:12.998Z,80.10
2022-12-16T18:19:10.289Z,80.24
2022-12-16T18:21:58.201Z,80.37
2022-12-16T18:24:48.383Z,80.24
2022-12-16T18:27:35.855Z,79.97
2022-12-16T18:30:23.154Z,80.08
2022-12-16T18:33:09.902Z,79.91
2022-12-16T18:35:56.358Z,80.07
2022-12-16T18:38:42.981Z,80.08
2022-12-16T18:41:35.760Z,80.00
2022-12-16T18:44:24.325Z,79.97
2022-12-16T18:47:11.368Z,79.87
2022-12-16T18:49:57.746Z,79.74
2022-12-16T18:52:44.630Z,79.79
2022-12-16T18:55:31.790Z,79.80
2022-12-16T18:58:49.232Z,79.75
2022-12-16T19:01:28.660Z,79.95
2022-12-16T19:04:15.969Z,79.85
2022-12-16T19:07:02.597Z,79.95
2022-12-16T19:09:49.307Z,80.08
2022-12-16T19:12:35.754Z,80.18
2022-12-16T19:15:22.228Z,80.12
2022-12-16T19:18:08.650Z,80.22
2022-12-16T19:20:56.765Z,80.12
2022-12-16T19:23:43.390Z,80.28
2022-12-16T19:26:29.914Z,80.28
2022-12-16T19:29:16.553Z,80.28
2022-12-16T19:32:03.182Z,80.42
2022-12-16T19:34:51.474Z,80.44
2022-12-16T19:37:38.713Z,80.21
2022-12-16T19:40:40.513Z,80.28
2022-12-16T19:43:26.873Z,80.56
2022-12-16T19:46:14.550Z,80.61
2022-12-16T19:49:01.224Z,80.67
2022-12-16T19:51:48.408Z,80.76
2022-12-16T19:54:35.055Z,80.41
2022-12-16T19:57:22.386Z,80.41
2022-12-16T20:00:09.032Z,80.38
2022-12-16T20:03:01.025Z,80.47
2022-12-16T20:05:48.878Z,80.50
2022-12-16T20:08:35.343Z,80.53
2022-12-16T20:11:36.236Z,80.52
2022-12-16T20:14:23.260Z,80.46
2022-12-16T20:17:10.292Z,80.35
2022-12-16T20:19:56.740Z,80.30
2022-12-16T20:22:53.797Z,80.40
2022-12-16T20:25:43.238Z,80.46
2022-12-16T20:28:31.784Z,80.65
2022-12-16T20:31:24.338Z,80.72
2022-12-16T20:34:14.460Z,80.65
2022-12-16T20:37:01.683Z,80.68
2022-12-16T20:39:56.375Z,80.72
2022-12-16T20:42:45.028Z,80.87
2022-12-16T20:45:31.913Z,81.00
2022-12-16T20:48:19.314Z,80.82
2022-12-16T20:51:22.624Z,80.91
2022-12-16T20:54:13.875Z,80.80
2022-12-16T20:57:00.471Z,81.12
2022-12-16T20:59:47.160Z,81.09
2022-12-16T21:02:34.475Z,81.19
2022-12-16T21:05:22.246Z,81.20
2022-12-16T21:08:08.604Z,81.14
2022-12-16T21:10:56.438Z,81.10
2022-12-16T21:13:43.714Z,81.33
2022-12-16T21:16:30.585Z,81.57
2022-12-16T21:19:17.446Z,81.81
2022-12-16T21:22:04.145Z,81.88
2022-12-16T21:24:50.447Z,81.56
2022-12-16T21:27:37.124Z,81.74
2022-12-16T21:30:24.332Z,81.52
2022-12-16T21:33:12.133Z,81.55
2022-12-16T21:35:58.566Z,81.45
2022-12-16T21:38:45.339Z,81.19
2022-12-16T21:41:31.629Z,81.31
2022-12-16T21:44:18.081Z,81.32
2022-12-16T21:47:04.503Z,82.25
2022-12-16T21:49:51.717Z,83.78
2022-12-16T21:52:38.506Z,83.80
2022-12-16T21:55:25.691Z,82.94
2022-12-16T21:58:14.321Z,82.08
2022-12-16T22:01:00.976Z,84.18
2022-12-16T22:03:54.569Z,85.21
2022-12-16T22:06:48.467Z,82.82
2022-12-16T22:09:35.970Z,81.21
2022-12-16T22:12:22.691Z,80.74
2022-12-16T22:15:09.311Z,80.73
2022-12-16T22:17:58.635Z,80.88
2022-12-16T22:20:45.494Z,80.92
2022-12-16T22:23:31.972Z,80.92
2022-12-16T22:26:19.650Z,80.87
2022-12-16T22:29:06.487Z,80.51
2022-12-16T22:31:52.646Z,80.79
2022-12-16T22:34:39.397Z,80.95
2022-12-16T22:37:25.887Z,81.08
2022-12-16T22:40:12.252Z,80.85
2022-12-16T22:42:58.679Z,80.85
2022-12-16T22:45:44.901Z,81.00
2022-12-16T22:48:31.777Z,81.01
2022-12-16T22:51:18.012Z,80.89
2022-12-16T22:54:08.374Z,81.13
2022-12-16T22:56:57.276Z,81.02
2022-12-16T22:59:44.046Z,81.12
2022-12-16T23:02:30.537Z,81.22
2022-12-16T23:05:18.389Z,81.28
2022-12-16T23:08:06.960Z,81.35
2022-12-16T23:10:53.413Z,81.21
2022-12-16T23:13:44.484Z,81.23
2022-12-16T23:16:31.897Z,81.34
2022-12-16T23:19:18.859Z,81.38
2022-12-16T23:22:07.509Z,81.45
2022-12-16T23:24:54.106Z,81.53
2022-12-16T23:27:40.644Z,81.62
2022-12-16T23:30:27.881Z,81.58
2022-12-16T23:33:19.252Z,81.61
2022-12-16T23:36:06.080Z,81.57
2022-12-16T23:38:53.411Z,81.47
2022-12-16T23:41:39.627Z,81.56
2022-12-16T23:44:25.838Z,81.44
2022-12-16T23:47:12.827Z,81.43
2022-12-16T23:49:59.162Z,81.43
2022-12-16T23:52:45.940Z,81.44
2022-12-16T23:55:32.788Z,81.34
2022-12-16T23:58:21.218Z,81.07
